sensor_id;sensor_type;location;lat;lon;timestamp;P1;durP1;ratioP1;P2;durP2;ratioP2
1885;SDS011;943;51.568;6.998;2023-02-02T00:01:50;8.50;;;3.60;;
1885;SDS011;943;51.568;6.998;2023-02-02T00:04:23;12.70;;;3.53;;
1885;SDS011;943;51.568;6.998;2023-02-02T00:07:02;12.97;;;3.67;;
1885;SDS011;943;51.568;6.998;2023-02-02T00:09:31;7.77;;;4.00;;
1885;SDS011;943;51.568;6.998;2023-02-02T00:12:00;9.33;;;3.50;;
1885;SDS011;943;51.568;6.998;2023-02-02T00:14:28;13.90;;;5.53;;
1885;SDS011;943;51.568;6.998;2023-02-02T00:16:56;12.23;;;3.63;;
1885;SDS011;943;51.568;6.998;2023-02-02T00:19:25;11.43;;;4.43;;
1885;SDS011;943;51.568;6.998;2023-02-02T00:21:57;12.40;;;4.47;;
1885;SDS011;943;51.568;6.998;2023-02-02T00:24:25;8.87;;;4.00;;
1885;SDS011;943;51.568;6.998;2023-02-02T00:26:55;10.03;;;4.20;;
1885;SDS011;943;51.568;6.998;2023-02-02T00:29:27;13.10;;;6.07;;
1885;SDS011;943;51.568;6.998;2023-02-02T00:31:57;19.30;;;6.70;;
1885;SDS011;943;51.568;6.998;2023-02-02T00:34:25;17.47;;;4.87;;
1885;SDS011;943;51.568;6.998;2023-02-02T00:36:52;17.43;;;5.10;;
1885;SDS011;943;51.568;6.998;2023-02-02T00:39:21;14.73;;;5.53;;
1885;SDS011;943;51.568;6.998;2023-02-02T00:41:54;50.80;;;7.10;;
1885;SDS011;943;51.568;6.998;2023-02-02T00:44:22;22.20;;;6.70;;
1885;SDS011;943;51.568;6.998;2023-02-02T00:47:08;17.50;;;5.57;;
1885;SDS011;943;51.568;6.998;2023-02-02T00:49:37;18.03;;;7.07;;
1885;SDS011;943;51.568;6.998;2023-02-02T00:52:04;18.40;;;6.13;;
1885;SDS011;943;51.568;6.998;2023-02-02T00:54:32;21.37;;;5.40;;
1885;SDS011;943;51.568;6.998;2023-02-02T00:57:01;15.07;;;4.17;;
1885;SDS011;943;51.568;6.998;2023-02-02T00:59:29;12.17;;;5.60;;
1885;SDS011;943;51.568;6.998;2023-02-02T01:01:58;8.03;;;3.47;;
1885;SDS011;943;51.568;6.998;2023-02-02T01:04:27;16.77;;;4.83;;
1885;SDS011;943;51.568;6.998;2023-02-02T01:06:55;10.53;;;4.63;;
1885;SDS011;943;51.568;6.998;2023-02-02T01:09:23;20.93;;;5.60;;
1885;SDS011;943;51.568;6.998;2023-02-02T01:11:52;12.83;;;5.40;;
1885;SDS011;943;51.568;6.998;2023-02-02T01:14:20;12.87;;;5.03;;
1885;SDS011;943;51.568;6.998;2023-02-02T01:16:48;15.23;;;5.50;;
1885;SDS011;943;51.568;6.998;2023-02-02T01:19:16;10.07;;;5.50;;
1885;SDS011;943;51.568;6.998;2023-02-02T01:21:44;19.67;;;6.90;;
1885;SDS011;943;51.568;6.998;2023-02-02T01:24:11;13.90;;;7.20;;
1885;SDS011;943;51.568;6.998;2023-02-02T01:26:39;13.57;;;5.80;;
1885;SDS011;943;51.568;6.998;2023-02-02T01:29:08;19.70;;;6.67;;
1885;SDS011;943;51.568;6.998;2023-02-02T01:31:36;17.00;;;6.80;;
1885;SDS011;943;51.568;6.998;2023-02-02T01:34:04;15.30;;;6.63;;
1885;SDS011;943;51.568;6.998;2023-02-02T01:36:32;16.90;;;7.70;;
1885;SDS011;943;51.568;6.998;2023-02-02T01:39:00;18.53;;;7.50;;
1885;SDS011;943;51.568;6.998;2023-02-02T01:41:28;16.07;;;7.27;;
1885;SDS011;943;51.568;6.998;2023-02-02T01:43:57;26.60;;;8.80;;
1885;SDS011;943;51.568;6.998;2023-02-02T01:46:31;17.13;;;6.97;;
1885;SDS011;943;51.568;6.998;2023-02-02T01:49:11;17.60;;;6.53;;
1885;SDS011;943;51.568;6.998;2023-02-02T01:51:56;21.87;;;8.00;;
1885;SDS011;943;51.568;6.998;2023-02-02T01:55:01;28.80;;;8.73;;
1885;SDS011;943;51.568;6.998;2023-02-02T01:57:57;24.53;;;9.77;;
1885;SDS011;943;51.568;6.998;2023-02-02T02:00:40;33.83;;;11.23;;
1885;SDS011;943;51.568;6.998;2023-02-02T02:03:16;28.63;;;11.87;;
1885;SDS011;943;51.568;6.998;2023-02-02T02:06:12;30.10;;;12.53;;
1885;SDS011;943;51.568;6.998;2023-02-02T02:11:29;41.43;;;14.43;;
1885;SDS011;943;51.568;6.998;2023-02-02T02:14:02;31.73;;;12.80;;
1885;SDS011;943;51.568;6.998;2023-02-02T02:38:15;28.83;;;12.33;;
1885;SDS011;943;51.568;6.998;2023-02-02T02:41:23;30.23;;;9.70;;
1885;SDS011;943;51.568;6.998;2023-02-02T02:44:07;24.73;;;10.37;;
1885;SDS011;943;51.568;6.998;2023-02-02T02:46:42;31.43;;;12.83;;
1885;SDS011;943;51.568;6.998;2023-02-02T02:49:11;28.90;;;12.10;;
1885;SDS011;943;51.568;6.998;2023-02-02T02:54:32;36.23;;;15.10;;
1885;SDS011;943;51.568;6.998;2023-02-02T03:04:05;25.03;;;9.77;;
1885;SDS011;943;51.568;6.998;2023-02-02T03:06:59;24.63;;;7.60;;
1885;SDS011;943;51.568;6.998;2023-02-02T03:10:28;23.00;;;8.30;;
1885;SDS011;943;51.568;6.998;2023-02-02T03:12:58;25.83;;;7.70;;
1885;SDS011;943;51.568;6.998;2023-02-02T03:15:26;31.57;;;6.73;;
1885;SDS011;943;51.568;6.998;2023-02-02T03:17:54;19.23;;;6.93;;
1885;SDS011;943;51.568;6.998;2023-02-02T03:20:22;18.20;;;6.70;;
1885;SDS011;943;51.568;6.998;2023-02-02T03:22:50;20.43;;;7.33;;
1885;SDS011;943;51.568;6.998;2023-02-02T03:25:17;22.40;;;9.87;;
1885;SDS011;943;51.568;6.998;2023-02-02T03:27:45;19.93;;;7.10;;
1885;SDS011;943;51.568;6.998;2023-02-02T03:30:13;29.63;;;7.13;;
1885;SDS011;943;51.568;6.998;2023-02-02T03:32:42;21.53;;;9.20;;
1885;SDS011;943;51.568;6.998;2023-02-02T03:35:12;18.63;;;7.57;;
1885;SDS011;943;51.568;6.998;2023-02-02T03:37:40;23.50;;;7.43;;
1885;SDS011;943;51.568;6.998;2023-02-02T03:40:08;17.83;;;6.80;;
1885;SDS011;943;51.568;6.998;2023-02-02T03:42:37;16.00;;;6.97;;
1885;SDS011;943;51.568;6.998;2023-02-02T03:45:05;17.87;;;8.03;;
1885;SDS011;943;51.568;6.998;2023-02-02T03:47:34;18.70;;;7.10;;
1885;SDS011;943;51.568;6.998;2023-02-02T03:50:02;24.07;;;8.60;;
1885;SDS011;943;51.568;6.998;2023-02-02T03:52:35;17.13;;;9.07;;
1885;SDS011;943;51.568;6.998;2023-02-02T03:55:03;29.50;;;11.43;;
1885;SDS011;943;51.568;6.998;2023-02-02T03:57:32;19.07;;;9.30;;
1885;SDS011;943;51.568;6.998;2023-02-02T04:00:00;19.50;;;10.27;;
1885;SDS011;943;51.568;6.998;2023-02-02T04:02:37;17.03;;;10.53;;
1885;SDS011;943;51.568;6.998;2023-02-02T04:05:06;18.83;;;11.13;;
1885;SDS011;943;51.568;6.998;2023-02-02T04:07:34;21.60;;;11.33;;
1885;SDS011;943;51.568;6.998;2023-02-02T04:10:03;29.37;;;13.10;;
1885;SDS011;943;51.568;6.998;2023-02-02T04:12:31;34.80;;;14.20;;
1885;SDS011;943;51.568;6.998;2023-02-02T04:14:59;30.50;;;14.40;;
1885;SDS011;943;51.568;6.998;2023-02-02T04:17:27;33.30;;;14.50;;
1885;SDS011;943;51.568;6.998;2023-02-02T04:19:54;26.83;;;15.30;;
1885;SDS011;943;51.568;6.998;2023-02-02T04:22:24;26.37;;;12.27;;
1885;SDS011;943;51.568;6.998;2023-02-02T04:24:52;33.30;;;14.53;;
1885;SDS011;943;51.568;6.998;2023-02-02T04:27:20;33.13;;;15.17;;
1885;SDS011;943;51.568;6.998;2023-02-02T04:29:48;29.93;;;13.50;;
1885;SDS011;943;51.568;6.998;2023-02-02T04:32:17;25.00;;;11.93;;
1885;SDS011;943;51.568;6.998;2023-02-02T04:34:45;33.40;;;16.63;;
1885;SDS011;943;51.568;6.998;2023-02-02T04:37:13;32.07;;;18.00;;
1885;SDS011;943;51.568;6.998;2023-02-02T04:39:40;46.83;;;19.97;;
1885;SDS011;943;51.568;6.998;2023-02-02T04:42:08;41.43;;;18.47;;
1885;SDS011;943;51.568;6.998;2023-02-02T04:44:36;41.57;;;20.07;;
1885;SDS011;943;51.568;6.998;2023-02-02T04:47:03;38.53;;;20.20;;
1885;SDS011;943;51.568;6.998;2023-02-02T04:49:31;40.93;;;19.40;;
1885;SDS011;943;51.568;6.998;2023-02-02T04:51:59;44.57;;;19.60;;
1885;SDS011;943;51.568;6.998;2023-02-02T04:54:27;42.97;;;19.40;;
1885;SDS011;943;51.568;6.998;2023-02-02T04:56:55;48.33;;;19.40;;
1885;SDS011;943;51.568;6.998;2023-02-02T04:59:23;32.50;;;15.77;;
1885;SDS011;943;51.568;6.998;2023-02-02T05:01:54;42.37;;;15.53;;
1885;SDS011;943;51.568;6.998;2023-02-02T05:04:29;55.43;;;16.00;;
1885;SDS011;943;51.568;6.998;2023-02-02T05:06:57;43.80;;;15.43;;
1885;SDS011;943;51.568;6.998;2023-02-02T05:09:24;39.60;;;14.10;;
1885;SDS011;943;51.568;6.998;2023-02-02T05:11:53;46.87;;;14.30;;
1885;SDS011;943;51.568;6.998;2023-02-02T05:14:20;33.87;;;13.00;;
1885;SDS011;943;51.568;6.998;2023-02-02T05:16:48;30.70;;;14.40;;
1885;SDS011;943;51.568;6.998;2023-02-02T05:19:16;44.07;;;13.90;;
1885;SDS011;943;51.568;6.998;2023-02-02T05:21:44;33.03;;;13.03;;
1885;SDS011;943;51.568;6.998;2023-02-02T05:24:16;39.60;;;13.87;;
1885;SDS011;943;51.568;6.998;2023-02-02T05:26:44;40.57;;;14.73;;
1885;SDS011;943;51.568;6.998;2023-02-02T05:29:12;42.23;;;13.60;;
1885;SDS011;943;51.568;6.998;2023-02-02T05:31:40;47.83;;;12.83;;
1885;SDS011;943;51.568;6.998;2023-02-02T05:34:08;28.60;;;11.37;;
1885;SDS011;943;51.568;6.998;2023-02-02T05:36:37;34.90;;;12.70;;
1885;SDS011;943;51.568;6.998;2023-02-02T05:39:04;33.20;;;12.03;;
1885;SDS011;943;51.568;6.998;2023-02-02T05:41:32;40.43;;;12.50;;
1885;SDS011;943;51.568;6.998;2023-02-02T05:44:00;30.80;;;11.83;;
1885;SDS011;943;51.568;6.998;2023-02-02T05:46:29;38.37;;;12.33;;
1885;SDS011;943;51.568;6.998;2023-02-02T05:48:56;40.07;;;13.90;;
1885;SDS011;943;51.568;6.998;2023-02-02T05:51:28;42.57;;;14.07;;
1885;SDS011;943;51.568;6.998;2023-02-02T05:54:08;41.40;;;14.47;;
1885;SDS011;943;51.568;6.998;2023-02-02T05:56:36;39.20;;;14.00;;
1885;SDS011;943;51.568;6.998;2023-02-02T05:59:04;36.43;;;12.83;;
1885;SDS011;943;51.568;6.998;2023-02-02T06:01:32;30.07;;;14.47;;
1885;SDS011;943;51.568;6.998;2023-02-02T06:04:01;44.20;;;15.33;;
1885;SDS011;943;51.568;6.998;2023-02-02T06:06:29;30.90;;;13.17;;
1885;SDS011;943;51.568;6.998;2023-02-02T06:08:57;34.67;;;14.37;;
1885;SDS011;943;51.568;6.998;2023-02-02T06:11:25;43.37;;;15.50;;
1885;SDS011;943;51.568;6.998;2023-02-02T06:13:53;29.30;;;13.80;;
1885;SDS011;943;51.568;6.998;2023-02-02T06:16:21;43.37;;;14.17;;
1885;SDS011;943;51.568;6.998;2023-02-02T06:18:50;30.27;;;14.60;;
1885;SDS011;943;51.568;6.998;2023-02-02T06:21:19;39.67;;;12.40;;
1885;SDS011;943;51.568;6.998;2023-02-02T06:23:50;42.30;;;14.00;;
1885;SDS011;943;51.568;6.998;2023-02-02T06:26:18;28.17;;;13.00;;
1885;SDS011;943;51.568;6.998;2023-02-02T06:28:50;29.30;;;13.60;;
1885;SDS011;943;51.568;6.998;2023-02-02T06:31:21;43.80;;;14.27;;
1885;SDS011;943;51.568;6.998;2023-02-02T06:33:56;44.30;;;15.90;;
1885;SDS011;943;51.568;6.998;2023-02-02T06:36:25;34.93;;;13.37;;
1885;SDS011;943;51.568;6.998;2023-02-02T06:38:55;36.93;;;13.93;;
1885;SDS011;943;51.568;6.998;2023-02-02T06:41:24;32.70;;;15.33;;
1885;SDS011;943;51.568;6.998;2023-02-02T06:43:51;41.93;;;14.30;;
1885;SDS011;943;51.568;6.998;2023-02-02T06:46:19;35.53;;;13.20;;
1885;SDS011;943;51.568;6.998;2023-02-02T06:48:47;41.23;;;14.37;;
1885;SDS011;943;51.568;6.998;2023-02-02T06:51:15;44.30;;;14.37;;
1885;SDS011;943;51.568;6.998;2023-02-02T06:53:43;38.70;;;15.67;;
1885;SDS011;943;51.568;6.998;2023-02-02T06:56:15;37.80;;;13.13;;
1885;SDS011;943;51.568;6.998;2023-02-02T06:58:43;34.27;;;15.10;;
1885;SDS011;943;51.568;6.998;2023-02-02T07:01:12;35.30;;;15.43;;
1885;SDS011;943;51.568;6.998;2023-02-02T07:03:40;34.17;;;14.50;;
1885;SDS011;943;51.568;6.998;2023-02-02T07:06:11;43.50;;;16.13;;
1885;SDS011;943;51.568;6.998;2023-02-02T07:08:49;38.63;;;16.50;;
1885;SDS011;943;51.568;6.998;2023-02-02T07:11:29;36.40;;;15.73;;
1885;SDS011;943;51.568;6.998;2023-02-02T07:14:06;37.07;;;15.80;;
1885;SDS011;943;51.568;6.998;2023-02-02T07:16:34;39.77;;;17.53;;
1885;SDS011;943;51.568;6.998;2023-02-02T07:19:01;47.63;;;18.70;;
1885;SDS011;943;51.568;6.998;2023-02-02T07:21:29;49.07;;;17.73;;
1885;SDS011;943;51.568;6.998;2023-02-02T07:24:03;40.87;;;17.33;;
1885;SDS011;943;51.568;6.998;2023-02-02T07:26:33;48.37;;;15.07;;
1885;SDS011;943;51.568;6.998;2023-02-02T07:29:02;33.47;;;15.70;;
1885;SDS011;943;51.568;6.998;2023-02-02T07:31:31;34.93;;;15.90;;
1885;SDS011;943;51.568;6.998;2023-02-02T07:34:03;31.53;;;15.23;;
1885;SDS011;943;51.568;6.998;2023-02-02T07:36:31;31.47;;;17.30;;
1885;SDS011;943;51.568;6.998;2023-02-02T07:39:00;47.57;;;17.77;;
1885;SDS011;943;51.568;6.998;2023-02-02T07:41:32;40.33;;;16.07;;
1885;SDS011;943;51.568;6.998;2023-02-02T07:44:03;47.40;;;18.30;;
1885;SDS011;943;51.568;6.998;2023-02-02T07:46:32;38.93;;;15.43;;
1885;SDS011;943;51.568;6.998;2023-02-02T07:49:01;39.30;;;16.90;;
1885;SDS011;943;51.568;6.998;2023-02-02T07:51:29;32.50;;;15.70;;
1885;SDS011;943;51.568;6.998;2023-02-02T07:53:57;37.37;;;17.17;;
1885;SDS011;943;51.568;6.998;2023-02-02T07:56:25;50.70;;;17.47;;
1885;SDS011;943;51.568;6.998;2023-02-02T07:58:54;42.07;;;19.47;;
1885;SDS011;943;51.568;6.998;2023-02-02T08:01:24;41.83;;;16.67;;
1885;SDS011;943;51.568;6.998;2023-02-02T08:03:54;39.73;;;17.53;;
1885;SDS011;943;51.568;6.998;2023-02-02T08:06:30;42.80;;;17.60;;
1885;SDS011;943;51.568;6.998;2023-02-02T08:09:05;37.10;;;17.60;;
1885;SDS011;943;51.568;6.998;2023-02-02T08:11:36;41.43;;;17.97;;
1885;SDS011;943;51.568;6.998;2023-02-02T08:14:05;43.13;;;17.30;;
1885;SDS011;943;51.568;6.998;2023-02-02T08:16:33;42.60;;;19.43;;
1885;SDS011;943;51.568;6.998;2023-02-02T08:19:01;38.13;;;18.43;;
1885;SDS011;943;51.568;6.998;2023-02-02T08:21:31;36.60;;;17.40;;
1885;SDS011;943;51.568;6.998;2023-02-02T08:24:00;42.17;;;19.33;;
1885;SDS011;943;51.568;6.998;2023-02-02T08:26:30;45.37;;;18.30;;
1885;SDS011;943;51.568;6.998;2023-02-02T08:28:59;37.67;;;17.70;;
1885;SDS011;943;51.568;6.998;2023-02-02T08:31:35;45.70;;;17.77;;
1885;SDS011;943;51.568;6.998;2023-02-02T08:34:09;35.13;;;17.87;;
1885;SDS011;943;51.568;6.998;2023-02-02T08:36:39;44.83;;;18.60;;
1885;SDS011;943;51.568;6.998;2023-02-02T08:39:09;52.53;;;20.97;;
1885;SDS011;943;51.568;6.998;2023-02-02T08:41:39;39.43;;;19.70;;
1885;SDS011;943;51.568;6.998;2023-02-02T08:44:08;44.70;;;17.90;;
1885;SDS011;943;51.568;6.998;2023-02-02T08:46:41;26.03;;;15.63;;
1885;SDS011;943;51.568;6.998;2023-02-02T08:49:09;38.63;;;18.23;;
1885;SDS011;943;51.568;6.998;2023-02-02T08:51:39;36.90;;;19.03;;
1885;SDS011;943;51.568;6.998;2023-02-02T08:54:08;39.70;;;19.10;;
1885;SDS011;943;51.568;6.998;2023-02-02T08:56:36;40.73;;;21.43;;
1885;SDS011;943;51.568;6.998;2023-02-02T08:59:04;43.40;;;20.80;;
1885;SDS011;943;51.568;6.998;2023-02-02T09:01:32;45.73;;;24.07;;
1885;SDS011;943;51.568;6.998;2023-02-02T09:04:02;42.80;;;19.80;;
1885;SDS011;943;51.568;6.998;2023-02-02T09:06:44;45.23;;;23.03;;
1885;SDS011;943;51.568;6.998;2023-02-02T09:09:13;43.93;;;20.80;;
1885;SDS011;943;51.568;6.998;2023-02-02T09:11:42;39.90;;;20.13;;
1885;SDS011;943;51.568;6.998;2023-02-02T09:14:11;45.03;;;19.57;;
1885;SDS011;943;51.568;6.998;2023-02-02T09:16:40;37.87;;;19.00;;
1885;SDS011;943;51.568;6.998;2023-02-02T09:19:09;43.53;;;22.10;;
1885;SDS011;943;51.568;6.998;2023-02-02T09:21:38;39.90;;;19.90;;
1885;SDS011;943;51.568;6.998;2023-02-02T09:24:07;41.43;;;21.83;;
1885;SDS011;943;51.568;6.998;2023-02-02T09:26:41;42.97;;;19.57;;
1885;SDS011;943;51.568;6.998;2023-02-02T09:29:11;38.93;;;19.70;;
1885;SDS011;943;51.568;6.998;2023-02-02T09:31:43;41.13;;;20.40;;
1885;SDS011;943;51.568;6.998;2023-02-02T09:34:13;38.70;;;20.60;;
1885;SDS011;943;51.568;6.998;2023-02-02T09:36:42;35.90;;;18.13;;
1885;SDS011;943;51.568;6.998;2023-02-02T09:39:12;34.13;;;19.37;;
1885;SDS011;943;51.568;6.998;2023-02-02T09:41:48;36.50;;;19.77;;
1885;SDS011;943;51.568;6.998;2023-02-02T09:44:58;37.50;;;18.83;;
1885;SDS011;943;51.568;6.998;2023-02-02T09:48:09;41.80;;;19.83;;
1885;SDS011;943;51.568;6.998;2023-02-02T09:51:07;44.07;;;18.70;;
1885;SDS011;943;51.568;6.998;2023-02-02T09:53:55;42.77;;;22.20;;
1885;SDS011;943;51.568;6.998;2023-02-02T09:56:53;34.53;;;18.57;;
1885;SDS011;943;51.568;6.998;2023-02-02T09:59:32;40.03;;;19.47;;
1885;SDS011;943;51.568;6.998;2023-02-02T10:02:15;43.93;;;21.20;;
1885;SDS011;943;51.568;6.998;2023-02-02T10:05:11;43.93;;;21.17;;
1885;SDS011;943;51.568;6.998;2023-02-02T10:07:52;46.23;;;25.13;;
1885;SDS011;943;51.568;6.998;2023-02-02T10:10:34;36.73;;;21.73;;
1885;SDS011;943;51.568;6.998;2023-02-02T10:13:19;46.83;;;22.80;;
1885;SDS011;943;51.568;6.998;2023-02-02T10:16:05;52.13;;;24.33;;
1885;SDS011;943;51.568;6.998;2023-02-02T10:18:49;45.03;;;23.60;;
1885;SDS011;943;51.568;6.998;2023-02-02T10:24:42;48.33;;;21.10;;
1885;SDS011;943;51.568;6.998;2023-02-02T10:27:14;38.90;;;22.47;;
1885;SDS011;943;51.568;6.998;2023-02-02T10:30:13;44.47;;;21.30;;
1885;SDS011;943;51.568;6.998;2023-02-02T10:33:58;39.03;;;19.27;;
1885;SDS011;943;51.568;6.998;2023-02-02T10:45:14;41.27;;;18.60;;
1885;SDS011;943;51.568;6.998;2023-02-02T10:47:46;37.23;;;18.73;;
1885;SDS011;943;51.568;6.998;2023-02-02T10:50:17;40.33;;;17.30;;
1885;SDS011;943;51.568;6.998;2023-02-02T10:52:48;35.77;;;18.03;;
1885;SDS011;943;51.568;6.998;2023-02-02T10:55:29;27.27;;;15.30;;
1885;SDS011;943;51.568;6.998;2023-02-02T10:58:28;50.03;;;17.60;;
1885;SDS011;943;51.568;6.998;2023-02-02T11:01:17;37.13;;;17.40;;
1885;SDS011;943;51.568;6.998;2023-02-02T11:03:48;37.93;;;17.80;;
1885;SDS011;943;51.568;6.998;2023-02-02T11:06:36;37.80;;;16.17;;
1885;SDS011;943;51.568;6.998;2023-02-02T11:09:22;38.13;;;16.43;;
1885;SDS011;943;51.568;6.998;2023-02-02T11:12:09;32.40;;;16.60;;
1885;SDS011;943;51.568;6.998;2023-02-02T11:17:54;38.43;;;15.93;;
1885;SDS011;943;51.568;6.998;2023-02-02T11:20:41;31.63;;;15.47;;
1885;SDS011;943;51.568;6.998;2023-02-02T11:23:16;30.10;;;15.40;;
1885;SDS011;943;51.568;6.998;2023-02-02T11:25:55;31.63;;;15.57;;
1885;SDS011;943;51.568;6.998;2023-02-02T11:28:31;33.50;;;14.60;;
1885;SDS011;943;51.568;6.998;2023-02-02T11:31:03;34.37;;;16.37;;
1885;SDS011;943;51.568;6.998;2023-02-02T11:33:32;37.73;;;17.00;;
1885;SDS011;943;51.568;6.998;2023-02-02T11:36:17;27.40;;;15.10;;
1885;SDS011;943;51.568;6.998;2023-02-02T11:38:47;36.53;;;16.63;;
1885;SDS011;943;51.568;6.998;2023-02-02T11:41:45;33.20;;;14.90;;
1885;SDS011;943;51.568;6.998;2023-02-02T11:44:24;26.87;;;12.87;;
1885;SDS011;943;51.568;6.998;2023-02-02T11:46:58;28.70;;;13.63;;
1885;SDS011;943;51.568;6.998;2023-02-02T11:49:31;28.53;;;12.93;;
1885;SDS011;943;51.568;6.998;2023-02-02T11:52:18;25.77;;;14.03;;
1885;SDS011;943;51.568;6.998;2023-02-02T11:54:54;29.80;;;12.63;;
1885;SDS011;943;51.568;6.998;2023-02-02T11:57:34;33.90;;;15.57;;
1885;SDS011;943;51.568;6.998;2023-02-02T12:02:47;26.40;;;14.17;;
1885;SDS011;943;51.568;6.998;2023-02-02T12:07:46;32.10;;;14.33;;
1885;SDS011;943;51.568;6.998;2023-02-02T12:16:16;28.87;;;14.60;;
1885;SDS011;943;51.568;6.998;2023-02-02T12:19:24;27.10;;;13.03;;
1885;SDS011;943;51.568;6.998;2023-02-02T12:22:40;35.23;;;13.63;;
1885;SDS011;943;51.568;6.998;2023-02-02T12:31:40;35.23;;;14.83;;
1885;SDS011;943;51.568;6.998;2023-02-02T12:35:36;44.80;;;15.43;;
1885;SDS011;943;51.568;6.998;2023-02-02T12:38:52;33.67;;;14.13;;
1885;SDS011;943;51.568;6.998;2023-02-02T12:42:27;36.43;;;16.10;;
1885;SDS011;943;51.568;6.998;2023-02-02T12:45:50;25.33;;;12.80;;
1885;SDS011;943;51.568;6.998;2023-02-02T12:49:00;24.10;;;13.70;;
1885;SDS011;943;51.568;6.998;2023-02-02T12:52:01;31.17;;;15.03;;
1885;SDS011;943;51.568;6.998;2023-02-02T12:58:37;35.90;;;17.33;;
1885;SDS011;943;51.568;6.998;2023-02-02T13:04:31;27.80;;;14.13;;
1885;SDS011;943;51.568;6.998;2023-02-02T13:10:52;37.93;;;14.53;;
1885;SDS011;943;51.568;6.998;2023-02-02T13:14:08;40.20;;;14.63;;
1885;SDS011;943;51.568;6.998;2023-02-02T13:17:11;30.00;;;15.80;;
1885;SDS011;943;51.568;6.998;2023-02-02T13:19:53;30.97;;;16.60;;
1885;SDS011;943;51.568;6.998;2023-02-02T13:22:37;36.83;;;16.50;;
1885;SDS011;943;51.568;6.998;2023-02-02T13:25:30;30.50;;;14.87;;
1885;SDS011;943;51.568;6.998;2023-02-02T13:31:35;25.60;;;14.10;;
1885;SDS011;943;51.568;6.998;2023-02-02T13:37:41;31.37;;;14.10;;
1885;SDS011;943;51.568;6.998;2023-02-02T13:40:41;23.53;;;13.33;;
1885;SDS011;943;51.568;6.998;2023-02-02T13:49:29;30.87;;;13.23;;
1885;SDS011;943;51.568;6.998;2023-02-02T13:59:55;29.87;;;12.30;;
1885;SDS011;943;51.568;6.998;2023-02-02T14:05:38;26.03;;;12.30;;
1885;SDS011;943;51.568;6.998;2023-02-02T14:08:15;26.83;;;13.10;;
1885;SDS011;943;51.568;6.998;2023-02-02T14:13:23;22.67;;;11.77;;
1885;SDS011;943;51.568;6.998;2023-02-02T14:19:01;20.70;;;12.37;;
1885;SDS011;943;51.568;6.998;2023-02-02T14:26:55;20.80;;;11.63;;
1885;SDS011;943;51.568;6.998;2023-02-02T14:49:27;25.37;;;10.90;;
1885;SDS011;943;51.568;6.998;2023-02-02T14:51:30;25.60;;;12.43;;
1885;SDS011;943;51.568;6.998;2023-02-02T14:54:36;20.43;;;11.80;;
1885;SDS011;943;51.568;6.998;2023-02-02T14:57:19;29.07;;;11.23;;
1885;SDS011;943;51.568;6.998;2023-02-02T14:59:54;24.27;;;10.93;;
1885;SDS011;943;51.568;6.998;2023-02-02T15:02:34;28.83;;;11.90;;
1885;SDS011;943;51.568;6.998;2023-02-02T15:08:42;42.47;;;11.97;;
1885;SDS011;943;51.568;6.998;2023-02-02T15:13:55;22.80;;;11.33;;
1885;SDS011;943;51.568;6.998;2023-02-02T15:16:39;23.97;;;10.27;;
1885;SDS011;943;51.568;6.998;2023-02-02T15:19:34;23.67;;;10.80;;
1885;SDS011;943;51.568;6.998;2023-02-02T15:22:30;26.37;;;11.80;;
1885;SDS011;943;51.568;6.998;2023-02-02T15:25:34;23.53;;;10.97;;
1885;SDS011;943;51.568;6.998;2023-02-02T15:31:54;21.23;;;11.63;;
1885;SDS011;943;51.568;6.998;2023-02-02T15:37:31;19.97;;;10.33;;
1885;SDS011;943;51.568;6.998;2023-02-02T15:40:13;19.10;;;11.70;;
1885;SDS011;943;51.568;6.998;2023-02-02T15:42:56;23.77;;;11.70;;
1885;SDS011;943;51.568;6.998;2023-02-02T15:45:42;22.73;;;11.40;;
1885;SDS011;943;51.568;6.998;2023-02-02T15:48:37;21.77;;;11.27;;
1885;SDS011;943;51.568;6.998;2023-02-02T15:51:15;24.30;;;11.00;;
1885;SDS011;943;51.568;6.998;2023-02-02T15:53:46;17.60;;;11.40;;
1885;SDS011;943;51.568;6.998;2023-02-02T15:58:52;27.13;;;13.30;;
1885;SDS011;943;51.568;6.998;2023-02-02T16:01:25;23.70;;;11.20;;
1885;SDS011;943;51.568;6.998;2023-02-02T16:04:14;25.67;;;13.03;;
1885;SDS011;943;51.568;6.998;2023-02-02T16:06:56;30.00;;;11.83;;
1885;SDS011;943;51.568;6.998;2023-02-02T16:09:30;26.30;;;11.63;;
1885;SDS011;943;51.568;6.998;2023-02-02T16:12:02;21.90;;;12.00;;
1885;SDS011;943;51.568;6.998;2023-02-02T16:14:38;19.27;;;11.30;;
1885;SDS011;943;51.568;6.998;2023-02-02T16:17:50;19.53;;;12.30;;
1885;SDS011;943;51.568;6.998;2023-02-02T16:20:11;22.63;;;12.70;;
1885;SDS011;943;51.568;6.998;2023-02-02T16:22:43;25.57;;;11.17;;
1885;SDS011;943;51.568;6.998;2023-02-02T16:25:15;24.60;;;13.43;;
1885;SDS011;943;51.568;6.998;2023-02-02T16:27:48;27.43;;;13.33;;
1885;SDS011;943;51.568;6.998;2023-02-02T16:30:35;25.33;;;12.90;;
1885;SDS011;943;51.568;6.998;2023-02-02T16:36:17;23.30;;;12.80;;
1885;SDS011;943;51.568;6.998;2023-02-02T16:38:57;22.27;;;12.40;;
1885;SDS011;943;51.568;6.998;2023-02-02T16:41:28;19.83;;;11.90;;
1885;SDS011;943;51.568;6.998;2023-02-02T16:47:29;24.40;;;13.37;;
1885;SDS011;943;51.568;6.998;2023-02-02T16:52:55;24.13;;;15.40;;
1885;SDS011;943;51.568;6.998;2023-02-02T16:55:31;27.87;;;15.10;;
1885;SDS011;943;51.568;6.998;2023-02-02T16:58:20;17.93;;;13.20;;
1885;SDS011;943;51.568;6.998;2023-02-02T17:01:12;22.27;;;15.10;;
1885;SDS011;943;51.568;6.998;2023-02-02T17:03:47;29.10;;;16.40;;
1885;SDS011;943;51.568;6.998;2023-02-02T17:06:24;23.13;;;16.50;;
1885;SDS011;943;51.568;6.998;2023-02-02T17:12:03;24.17;;;16.97;;
1885;SDS011;943;51.568;6.998;2023-02-02T17:15:00;27.40;;;17.20;;
1885;SDS011;943;51.568;6.998;2023-02-02T17:17:43;24.73;;;17.07;;
1885;SDS011;943;51.568;6.998;2023-02-02T17:20:15;29.80;;;18.10;;
1885;SDS011;943;51.568;6.998;2023-02-02T17:22:46;35.43;;;20.33;;
1885;SDS011;943;51.568;6.998;2023-02-02T17:25:26;29.10;;;20.13;;
1885;SDS011;943;51.568;6.998;2023-02-02T17:28:10;24.97;;;17.47;;
1885;SDS011;943;51.568;6.998;2023-02-02T17:30:47;25.80;;;18.70;;
1885;SDS011;943;51.568;6.998;2023-02-02T17:33:42;27.13;;;17.57;;
1885;SDS011;943;51.568;6.998;2023-02-02T17:36:11;27.50;;;17.47;;
1885;SDS011;943;51.568;6.998;2023-02-02T17:38:40;31.17;;;19.10;;
1885;SDS011;943;51.568;6.998;2023-02-02T17:41:08;25.00;;;16.33;;
1885;SDS011;943;51.568;6.998;2023-02-02T17:43:39;28.70;;;17.90;;
1885;SDS011;943;51.568;6.998;2023-02-02T17:46:09;30.43;;;17.43;;
1885;SDS011;943;51.568;6.998;2023-02-02T17:48:39;26.27;;;15.60;;
1885;SDS011;943;51.568;6.998;2023-02-02T17:51:10;31.03;;;19.33;;
1885;SDS011;943;51.568;6.998;2023-02-02T17:53:43;29.90;;;18.90;;
1885;SDS011;943;51.568;6.998;2023-02-02T17:56:12;19.73;;;14.40;;
1885;SDS011;943;51.568;6.998;2023-02-02T17:58:40;21.90;;;14.67;;
1885;SDS011;943;51.568;6.998;2023-02-02T18:01:09;18.40;;;12.60;;
1885;SDS011;943;51.568;6.998;2023-02-02T18:03:39;20.27;;;13.70;;
1885;SDS011;943;51.568;6.998;2023-02-02T18:06:11;24.70;;;15.17;;
1885;SDS011;943;51.568;6.998;2023-02-02T18:08:39;23.43;;;14.80;;
1885;SDS011;943;51.568;6.998;2023-02-02T18:11:09;21.70;;;15.17;;
1885;SDS011;943;51.568;6.998;2023-02-02T18:13:40;21.63;;;14.80;;
1885;SDS011;943;51.568;6.998;2023-02-02T18:16:10;22.43;;;15.53;;
1885;SDS011;943;51.568;6.998;2023-02-02T18:18:39;28.03;;;16.97;;
1885;SDS011;943;51.568;6.998;2023-02-02T18:21:10;31.43;;;17.00;;
1885;SDS011;943;51.568;6.998;2023-02-02T18:23:39;21.43;;;15.03;;
1885;SDS011;943;51.568;6.998;2023-02-02T18:26:08;19.43;;;13.97;;
1885;SDS011;943;51.568;6.998;2023-02-02T18:28:45;23.57;;;15.20;;
1885;SDS011;943;51.568;6.998;2023-02-02T18:31:16;23.87;;;15.03;;
1885;SDS011;943;51.568;6.998;2023-02-02T18:33:49;23.43;;;14.73;;
1885;SDS011;943;51.568;6.998;2023-02-02T18:36:19;21.43;;;14.00;;